PWSweather.com
Personal Weather Stations
Station Observations
KNVELKO7
Elko, NV 89801

Elko, NV 89801

Lat: 40.963233, Lon: -115.592836

Elevation: 5230

Station Type: WS-2812

High Low Average
Temperature 78.8°F26.0°F 27.5°F-2.5°F 53.1°F11.7°F
Dew Point 37.0°F2.8°F 13.6°F-10.2°F 24.2°F-4.3°F
Winds 16.3 mph SSW26.2 mph SSW Calm Calm 4.0 mph 6.4 mph
Wind Gusts 19.5 mph31.4 mph 0.2 mph0.3 mph 6.6 mph10.6 mph
Humidity 62% 17% 36%
Pressure 30.16 in1021.30 in 30.01 in1016.30 in -
Precipitation 0.00 in0.00 in - -
Hour Temp Dew Point Humidity Winds Wind Gusts Pressure Precip Precip Rate Daily Precip Total
12:03 AM 39.2°F4.0°C 16.9°F-8.4°C 40% 0.4 mph 0.6 kmh 1.8 mph2.9 kmh 30.09 in1019.0 mb 0.00 in0.0 mm 0.00 in/hr0.0 mm/hr 0.00 in0.0 mm
12:08 AM 39.2°F4.0°C 16.9°F-8.4°C 40% Calm Calm 1.8 mph2.9 kmh 30.09 in1019.0 mb 0.00 in0.0 mm 0.00 in/hr0.0 mm/hr 0.00 in0.0 mm
12:13 AM 39.1°F3.9°C 16.7°F-8.5°C 40% 0.2 mph E0.3 kmh E 0.2 mph0.3 kmh 30.09 in1019.0 mb 0.00 in0.0 mm 0.00 in/hr0.0 mm/hr 0.00 in0.0 mm
12:18 AM 38.9°F3.8°C 16.6°F-8.6°C 40% 0.7 mph NNE1.1 kmh NNE 1.3 mph2.1 kmh 30.09 in1019.0 mb 0.00 in0.0 mm 0.00 in/hr0.0 mm/hr 0.00 in0.0 mm
12:23 AM 38.5°F3.6°C 16.3°F-8.7°C 40% 2.3 mph ESE3.7 kmh ESE 2.7 mph4.3 kmh 30.09 in1019.0 mb 0.00 in0.0 mm 0.00 in/hr0.0 mm/hr 0.00 in0.0 mm
12:28 AM 38.2°F3.4°C 17.0°F-8.3°C 42% 0.6 mph ESE1.0 kmh ESE 2.7 mph4.3 kmh 30.09 in1019.0 mb 0.00 in0.0 mm 0.00 in/hr0.0 mm/hr 0.00 in0.0 mm
12:33 AM 37.8°F3.2°C 17.2°F-8.2°C 43% 1.5 mph E2.4 kmh E 2.5 mph4.0 kmh 30.09 in1019.0 mb 0.00 in0.0 mm 0.00 in/hr0.0 mm/hr 0.00 in0.0 mm
12:38 AM 37.6°F3.1°C 17.0°F-8.3°C 43% 0.6 mph N1.0 kmh N 2.5 mph4.0 kmh 30.09 in1019.0 mb 0.00 in0.0 mm 0.00 in/hr0.0 mm/hr 0.00 in0.0 mm
12:43 AM 37.4°F3.0°C 16.8°F-8.4°C 43% 1.3 mph N2.1 kmh N 2.5 mph4.0 kmh 30.09 in1019.0 mb 0.00 in0.0 mm 0.00 in/hr0.0 mm/hr 0.00 in0.0 mm
12:48 AM 37.3°F2.9°C 17.7°F-7.9°C 45% 3.2 mph N5.1 kmh N 3.8 mph6.1 kmh 30.09 in1019.0 mb 0.00 in0.0 mm 0.00 in/hr0.0 mm/hr 0.00 in0.0 mm
12:53 AM 37.4°F3.0°C 17.9°F-7.8°C 45% 1.6 mph NE2.6 kmh NE 4.7 mph7.6 kmh 30.10 in1019.3 mb 0.00 in0.0 mm 0.00 in/hr0.0 mm/hr 0.00 in0.0 mm
12:58 AM 37.4°F3.0°C 17.9°F-7.8°C 45% 2.9 mph ENE4.7 kmh ENE 4.7 mph7.6 kmh 30.10 in1019.3 mb 0.00 in0.0 mm 0.00 in/hr0.0 mm/hr 0.00 in0.0 mm
01:03 AM 37.4°F3.0°C 17.9°F-7.8°C 45% 1.7 mph NE2.7 kmh NE 3.4 mph5.5 kmh 30.10 in1019.3 mb 0.00 in0.0 mm 0.00 in/hr0.0 mm/hr 0.00 in0.0 mm
01:08 AM 37.3°F2.9°C 17.7°F-7.9°C 45% 3.4 mph E5.5 kmh E 3.4 mph5.5 kmh 30.10 in1019.3 mb 0.00 in0.0 mm 0.00 in/hr0.0 mm/hr 0.00 in0.0 mm
01:13 AM 37.1°F2.8°C 18.1°F-7.7°C 46% 4.0 mph E6.4 kmh E 4.7 mph7.6 kmh 30.10 in1019.3 mb 0.00 in0.0 mm 0.00 in/hr0.0 mm/hr 0.00 in0.0 mm
01:18 AM 37.1°F2.8°C 18.1°F-7.7°C 46% 2.6 mph E4.2 kmh E 4.7 mph7.6 kmh 30.10 in1019.3 mb 0.00 in0.0 mm 0.00 in/hr0.0 mm/hr 0.00 in0.0 mm
01:23 AM 37.3°F2.9°C 18.8°F-7.3°C 47% 3.7 mph ENE6.0 kmh ENE 4.3 mph6.9 kmh 30.10 in1019.3 mb 0.00 in0.0 mm 0.00 in/hr0.0 mm/hr 0.00 in0.0 mm
01:28 AM 37.4°F3.0°C 18.5°F-7.5°C 46% 1.8 mph E2.9 kmh E 4.0 mph6.4 kmh 30.10 in1019.3 mb 0.00 in0.0 mm 0.00 in/hr0.0 mm/hr 0.00 in0.0 mm
01:33 AM 37.4°F3.0°C 18.5°F-7.5°C 46% 0.2 mph ENE0.3 kmh ENE 2.9 mph4.7 kmh 30.10 in1019.3 mb 0.00 in0.0 mm 0.00 in/hr0.0 mm/hr 0.00 in0.0 mm
01:38 AM 37.6°F3.1°C 18.6°F-7.4°C 46% Calm Calm 2.5 mph4.0 kmh 30.10 in1019.3 mb 0.00 in0.0 mm 0.00 in/hr0.0 mm/hr 0.00 in0.0 mm
01:43 AM 37.3°F2.9°C 17.7°F-7.9°C 45% 1.8 mph NNW2.9 kmh NNW 2.5 mph4.0 kmh 30.10 in1019.3 mb 0.00 in0.0 mm 0.00 in/hr0.0 mm/hr 0.00 in0.0 mm
01:48 AM 37.1°F2.8°C 17.6°F-8.0°C 45% 0.6 mph NE1.0 kmh NE 2.0 mph3.2 kmh 30.10 in1019.3 mb 0.00 in0.0 mm 0.00 in/hr0.0 mm/hr 0.00 in0.0 mm
01:53 AM 36.9°F2.7°C 17.9°F-7.8°C 46% 1.5 mph NNW2.4 kmh NNW 2.0 mph3.2 kmh 30.10 in1019.3 mb 0.00 in0.0 mm 0.00 in/hr0.0 mm/hr 0.00 in0.0 mm
01:58 AM 36.4°F2.4°C 17.5°F-8.1°C 46% 1.4 mph N2.3 kmh N 4.7 mph7.6 kmh 30.10 in1019.3 mb 0.00 in0.0 mm 0.00 in/hr0.0 mm/hr 0.00 in0.0 mm
02:03 AM 36.2°F2.3°C 17.3°F-8.2°C 46% 0.4 mph E0.6 kmh E 4.7 mph7.6 kmh 30.10 in1019.3 mb 0.00 in0.0 mm 0.00 in/hr0.0 mm/hr 0.00 in0.0 mm
02:08 AM 36.4°F2.4°C 18.0°F-7.8°C 47% 2.1 mph NNW3.4 kmh NNW 4.0 mph6.4 kmh 30.10 in1019.3 mb 0.00 in0.0 mm 0.00 in/hr0.0 mm/hr 0.00 in0.0 mm
02:13 AM 36.2°F2.3°C 17.3°F-8.2°C 46% 3.2 mph 5.1 kmh 4.7 mph7.6 kmh 30.10 in1019.3 mb 0.00 in0.0 mm 0.00 in/hr0.0 mm/hr 0.00 in0.0 mm
02:18 AM 36.4°F2.4°C 18.0°F-7.8°C 47% 3.6 mph 5.8 kmh 4.7 mph7.6 kmh 30.10 in1019.3 mb 0.00 in0.0 mm 0.00 in/hr0.0 mm/hr 0.00 in0.0 mm
02:23 AM 36.0°F2.2°C 17.6°F-8.0°C 47% 0.2 mph N0.3 kmh N 6.7 mph10.8 kmh 30.11 in1019.6 mb 0.00 in0.0 mm 0.00 in/hr0.0 mm/hr 0.00 in0.0 mm
02:28 AM 35.5°F1.9°C 17.2°F-8.2°C 47% 3.4 mph NE5.5 kmh NE 7.4 mph11.9 kmh 30.11 in1019.6 mb 0.00 in0.0 mm 0.00 in/hr0.0 mm/hr 0.00 in0.0 mm
02:33 AM 35.6°F2.0°C 17.8°F-7.9°C 48% 1.1 mph NE1.8 kmh NE 7.4 mph11.9 kmh 30.11 in1019.6 mb 0.00 in0.0 mm 0.00 in/hr0.0 mm/hr 0.00 in0.0 mm
02:38 AM 35.8°F2.1°C 18.0°F-7.8°C 48% 0.7 mph E1.1 kmh E 6.3 mph10.1 kmh 30.11 in1019.6 mb 0.00 in0.0 mm 0.00 in/hr0.0 mm/hr 0.00 in0.0 mm
02:43 AM 35.6°F2.0°C 17.8°F-7.9°C 48% 0.8 mph ENE1.3 kmh ENE 6.3 mph10.1 kmh 30.11 in1019.6 mb 0.00 in0.0 mm 0.00 in/hr0.0 mm/hr 0.00 in0.0 mm
02:48 AM 35.3°F1.8°C 17.5°F-8.1°C 48% 1.0 mph NNE1.6 kmh NNE 4.0 mph6.4 kmh 30.11 in1019.6 mb 0.00 in0.0 mm 0.00 in/hr0.0 mm/hr 0.00 in0.0 mm
02:53 AM 35.1°F1.7°C 16.8°F-8.4°C 47% 2.6 mph NNE4.2 kmh NNE 4.0 mph6.4 kmh 30.11 in1019.6 mb 0.00 in0.0 mm 0.00 in/hr0.0 mm/hr 0.00 in0.0 mm
02:58 AM 34.9°F1.6°C 16.7°F-8.5°C 47% 0.9 mph N1.4 kmh N 3.4 mph5.5 kmh 30.11 in1019.6 mb 0.00 in0.0 mm 0.00 in/hr0.0 mm/hr 0.00 in0.0 mm
03:04 AM 34.2°F1.2°C 15.9°F-8.9°C 47% 3.9 mph N6.3 kmh N 4.3 mph6.9 kmh 30.11 in1019.6 mb 0.00 in0.0 mm 0.00 in/hr0.0 mm/hr 0.00 in0.0 mm
03:09 AM 33.8°F1.0°C 16.1°F-8.8°C 48% 1.1 mph NNE1.8 kmh NNE 4.3 mph6.9 kmh 30.11 in1019.6 mb 0.00 in0.0 mm 0.00 in/hr0.0 mm/hr 0.00 in0.0 mm
03:14 AM 33.7°F0.9°C 15.9°F-8.9°C 48% 0.6 mph N1.0 kmh N 4.3 mph6.9 kmh 30.11 in1019.6 mb 0.00 in0.0 mm 0.00 in/hr0.0 mm/hr 0.00 in0.0 mm
03:19 AM 33.3°F0.7°C 15.6°F-9.1°C 48% 2.5 mph NE4.0 kmh NE 4.3 mph6.9 kmh 30.11 in1019.6 mb 0.00 in0.0 mm 0.00 in/hr0.0 mm/hr 0.00 in0.0 mm
03:23 AM 33.1°F0.6°C 15.9°F-8.9°C 49% 3.9 mph NNE6.3 kmh NNE 4.5 mph7.2 kmh 30.11 in1019.6 mb 0.00 in0.0 mm 0.00 in/hr0.0 mm/hr 0.00 in0.0 mm
03:28 AM 33.5°F0.8°C 17.2°F-8.2°C 51% 1.4 mph NE2.3 kmh NE 4.5 mph7.2 kmh 30.11 in1019.6 mb 0.00 in0.0 mm 0.00 in/hr0.0 mm/hr 0.00 in0.0 mm
03:33 AM 33.5°F0.8°C 17.2°F-8.2°C 51% 0.2 mph NNE0.3 kmh NNE 4.7 mph7.6 kmh 30.10 in1019.3 mb 0.00 in0.0 mm 0.00 in/hr0.0 mm/hr 0.00 in0.0 mm
03:38 AM 33.5°F0.8°C 16.7°F-8.5°C 50% 3.2 mph NE5.1 kmh NE 5.1 mph8.2 kmh 30.10 in1019.3 mb 0.00 in0.0 mm 0.00 in/hr0.0 mm/hr 0.00 in0.0 mm
03:43 AM 33.5°F0.8°C 17.6°F-8.0°C 52% 0.8 mph NE1.3 kmh NE 5.1 mph8.2 kmh 30.10 in1019.3 mb 0.00 in0.0 mm 0.00 in/hr0.0 mm/hr 0.00 in0.0 mm
03:48 AM 33.5°F0.8°C 17.2°F-8.2°C 51% 0.8 mph 1.3 kmh 3.4 mph5.5 kmh 30.11 in1019.6 mb 0.00 in0.0 mm 0.00 in/hr0.0 mm/hr 0.00 in0.0 mm
03:53 AM 33.1°F0.6°C 16.9°F-8.4°C 51% 1.0 mph N1.6 kmh N 1.6 mph2.6 kmh 30.11 in1019.6 mb 0.00 in0.0 mm 0.00 in/hr0.0 mm/hr 0.00 in0.0 mm
03:58 AM 32.9°F0.5°C 16.8°F-8.4°C 51% 1.1 mph NNW1.8 kmh NNW 2.5 mph4.0 kmh 30.11 in1019.6 mb 0.00 in0.0 mm 0.00 in/hr0.0 mm/hr 0.00 in0.0 mm
04:04 AM 32.6°F0.3°C 16.8°F-8.4°C 52% 1.2 mph NE1.9 kmh NE 2.9 mph4.7 kmh 30.11 in1019.6 mb 0.00 in0.0 mm 0.00 in/hr0.0 mm/hr 0.00 in0.0 mm
04:09 AM 32.4°F0.2°C 17.1°F-8.3°C 53% 3.2 mph ENE5.1 kmh ENE 3.6 mph5.8 kmh 30.11 in1019.6 mb 0.00 in0.0 mm 0.00 in/hr0.0 mm/hr 0.00 in0.0 mm
04:14 AM 32.2°F0.1°C 16.5°F-8.6°C 52% 3.0 mph 4.8 kmh 3.6 mph5.8 kmh 30.11 in1019.6 mb 0.00 in0.0 mm 0.00 in/hr0.0 mm/hr 0.00 in0.0 mm
04:19 AM 31.7°F-0.2°C 16.5°F-8.6°C 53% 2.7 mph NE4.3 kmh NE 3.6 mph5.8 kmh 30.11 in1019.6 mb 0.00 in0.0 mm 0.00 in/hr0.0 mm/hr 0.00 in0.0 mm
04:24 AM 31.7°F-0.2°C 16.5°F-8.6°C 53% 3.1 mph N5.0 kmh N 4.3 mph6.9 kmh 30.11 in1019.6 mb 0.00 in0.0 mm 0.00 in/hr0.0 mm/hr 0.00 in0.0 mm
04:29 AM 31.9°F-0.1°C 17.0°F-8.3°C 54% 3.1 mph NNE5.0 kmh NNE 5.4 mph8.7 kmh 30.11 in1019.6 mb 0.00 in0.0 mm 0.00 in/hr0.0 mm/hr 0.00 in0.0 mm
04:34 AM 32.0°F0.0°C 17.2°F-8.2°C 54% 4.7 mph 7.6 kmh 5.4 mph8.7 kmh 30.11 in1019.6 mb 0.00 in0.0 mm 0.00 in/hr0.0 mm/hr 0.00 in0.0 mm
04:39 AM 31.7°F-0.2°C 16.5°F-8.6°C 53% 1.1 mph NNE1.8 kmh NNE 4.7 mph7.6 kmh 30.11 in1019.6 mb 0.00 in0.0 mm 0.00 in/hr0.0 mm/hr 0.00 in0.0 mm
04:44 AM 31.7°F-0.2°C 16.8°F-8.4°C 54% 2.7 mph N4.3 kmh N 4.7 mph7.6 kmh 30.11 in1019.6 mb 0.00 in0.0 mm 0.00 in/hr0.0 mm/hr 0.00 in0.0 mm
04:49 AM 31.7°F-0.2°C 16.8°F-8.4°C 54% 0.6 mph N1.0 kmh N 4.7 mph7.6 kmh 30.11 in1019.6 mb 0.00 in0.0 mm 0.00 in/hr0.0 mm/hr 0.00 in0.0 mm
04:54 AM 31.5°F-0.3°C 16.8°F-8.4°C 54% 3.4 mph N5.5 kmh N 5.4 mph8.7 kmh 30.11 in1019.6 mb 0.00 in0.0 mm 0.00 in/hr0.0 mm/hr 0.00 in0.0 mm
04:59 AM 31.7°F-0.2°C 17.3°F-8.2°C 55% 3.7 mph N6.0 kmh N 5.4 mph8.7 kmh 30.11 in1019.6 mb 0.00 in0.0 mm 0.00 in/hr0.0 mm/hr 0.00 in0.0 mm
05:04 AM 31.7°F-0.2°C 17.3°F-8.2°C 55% 3.3 mph NE5.3 kmh NE 5.4 mph8.7 kmh 30.11 in1019.6 mb 0.00 in0.0 mm 0.00 in/hr0.0 mm/hr 0.00 in0.0 mm
05:09 AM 31.7°F-0.2°C 17.3°F-8.2°C 55% 2.5 mph 4.0 kmh 5.4 mph8.7 kmh 30.11 in1019.6 mb 0.00 in0.0 mm 0.00 in/hr0.0 mm/hr 0.00 in0.0 mm
05:14 AM 31.3°F-0.4°C 16.6°F-8.6°C 54% 1.9 mph N3.1 kmh N 3.1 mph5.0 kmh 30.11 in1019.6 mb 0.00 in0.0 mm 0.00 in/hr0.0 mm/hr 0.00 in0.0 mm
05:19 AM 31.0°F-0.6°C 16.2°F-8.8°C 54% Calm Calm 2.7 mph4.3 kmh 30.12 in1020.0 mb 0.00 in0.0 mm 0.00 in/hr0.0 mm/hr 0.00 in0.0 mm
05:24 AM 30.6°F-0.8°C 15.8°F-9.0°C 54% 0.4 mph NNW0.6 kmh NNW 1.1 mph1.8 kmh 30.12 in1020.0 mb 0.00 in0.0 mm 0.00 in/hr0.0 mm/hr 0.00 in0.0 mm
05:29 AM 30.1°F-1.1°C 15.4°F-9.2°C 54% Calm Calm 1.1 mph1.8 kmh 30.12 in1020.0 mb 0.00 in0.0 mm 0.00 in/hr0.0 mm/hr 0.00 in0.0 mm
05:34 AM 29.9°F-1.2°C 15.6°F-9.1°C 55% 0.7 mph ENE1.1 kmh ENE 1.8 mph2.9 kmh 30.12 in1020.0 mb 0.00 in0.0 mm 0.00 in/hr0.0 mm/hr 0.00 in0.0 mm
05:39 AM 29.5°F-1.4°C 15.3°F-9.3°C 55% 0.6 mph NNW1.0 kmh NNW 2.0 mph3.2 kmh 30.12 in1020.0 mb 0.00 in0.0 mm 0.00 in/hr0.0 mm/hr 0.00 in0.0 mm
05:44 AM 29.2°F-1.6°C 14.9°F-9.5°C 55% 1.8 mph 2.9 kmh 3.4 mph5.5 kmh 30.12 in1020.0 mb 0.00 in0.0 mm 0.00 in/hr0.0 mm/hr 0.00 in0.0 mm
05:49 AM 29.2°F-1.6°C 15.4°F-9.2°C 56% 0.2 mph E0.3 kmh E 3.4 mph5.5 kmh 30.12 in1020.0 mb 0.00 in0.0 mm 0.00 in/hr0.0 mm/hr 0.00 in0.0 mm
05:54 AM 29.2°F-1.6°C 15.4°F-9.2°C 56% 0.2 mph SE0.3 kmh SE 0.2 mph0.3 kmh 30.12 in1020.0 mb 0.00 in0.0 mm 0.00 in/hr0.0 mm/hr 0.00 in0.0 mm
05:59 AM 29.2°F-1.6°C 15.4°F-9.2°C 56% 0.6 mph SSE1.0 kmh SSE 1.3 mph2.1 kmh 30.12 in1020.0 mb 0.00 in0.0 mm 0.00 in/hr0.0 mm/hr 0.00 in0.0 mm
06:04 AM 29.2°F-1.6°C 15.4°F-9.2°C 56% 1.3 mph W2.1 kmh W 1.3 mph2.1 kmh 30.12 in1020.0 mb 0.00 in0.0 mm 0.00 in/hr0.0 mm/hr 0.00 in0.0 mm
06:09 AM 28.6°F-1.9°C 14.9°F-9.5°C 56% 1.3 mph NNW2.1 kmh NNW 1.3 mph2.1 kmh 30.12 in1020.0 mb 0.00 in0.0 mm 0.00 in/hr0.0 mm/hr 0.00 in0.0 mm
06:14 AM 28.1°F-2.2°C 14.0°F-10.0°C 55% 0.4 mph 0.6 kmh 1.3 mph2.1 kmh 30.12 in1020.0 mb 0.00 in0.0 mm 0.00 in/hr0.0 mm/hr 0.00 in0.0 mm
06:19 AM 27.7°F-2.4°C 13.6°F-10.2°C 55% 2.3 mph 3.7 kmh 2.9 mph4.7 kmh 30.12 in1020.0 mb 0.00 in0.0 mm 0.00 in/hr0.0 mm/hr 0.00 in0.0 mm
06:24 AM 27.9°F-2.3°C 14.2°F-9.9°C 56% 4.3 mph NNE6.9 kmh NNE 4.3 mph6.9 kmh 30.12 in1020.0 mb 0.00 in0.0 mm 0.00 in/hr0.0 mm/hr 0.00 in0.0 mm
06:29 AM 28.1°F-2.2°C 14.8°F-9.6°C 57% 3.4 mph N5.5 kmh N 4.3 mph6.9 kmh 30.12 in1020.0 mb 0.00 in0.0 mm 0.00 in/hr0.0 mm/hr 0.00 in0.0 mm
06:34 AM 27.7°F-2.4°C 14.9°F-9.5°C 58% 2.3 mph NNE3.7 kmh NNE 4.5 mph7.2 kmh 30.12 in1020.0 mb 0.00 in0.0 mm 0.00 in/hr0.0 mm/hr 0.00 in0.0 mm
06:39 AM 27.5°F-2.5°C 15.0°F-9.4°C 59% 1.3 mph E2.1 kmh E 4.5 mph7.2 kmh 30.13 in1020.3 mb 0.00 in0.0 mm 0.00 in/hr0.0 mm/hr 0.00 in0.0 mm
06:44 AM 27.7°F-2.4°C 15.2°F-9.3°C 59% 0.2 mph SE0.3 kmh SE 2.7 mph4.3 kmh 30.13 in1020.3 mb 0.00 in0.0 mm 0.00 in/hr0.0 mm/hr 0.00 in0.0 mm
06:49 AM 27.7°F-2.4°C 15.7°F-9.1°C 60% Calm Calm 2.7 mph4.3 kmh 30.13 in1020.3 mb 0.00 in0.0 mm 0.00 in/hr0.0 mm/hr 0.00 in0.0 mm
06:54 AM 27.7°F-2.4°C 15.7°F-9.1°C 60% 0.9 mph NNW1.4 kmh NNW 4.0 mph6.4 kmh 30.13 in1020.3 mb 0.00 in0.0 mm 0.00 in/hr0.0 mm/hr 0.00 in0.0 mm
07:00 AM 27.5°F-2.5°C 15.5°F-9.2°C 60% 2.2 mph ESE3.5 kmh ESE 4.3 mph6.9 kmh 30.13 in1020.3 mb 0.00 in0.0 mm 0.00 in/hr0.0 mm/hr 0.00 in0.0 mm
07:05 AM 27.7°F-2.4°C 16.0°F-8.9°C 61% 3.5 mph NE5.6 kmh NE 4.5 mph7.2 kmh 30.13 in1020.3 mb 0.00 in0.0 mm 0.00 in/hr0.0 mm/hr 0.00 in0.0 mm
07:09 AM 27.9°F-2.3°C 16.2°F-8.8°C 61% 0.9 mph NNE1.4 kmh NNE 4.5 mph7.2 kmh 30.13 in1020.3 mb 0.00 in0.0 mm 0.00 in/hr0.0 mm/hr 0.00 in0.0 mm
07:14 AM 27.9°F-2.3°C 16.2°F-8.8°C 61% 3.8 mph E6.1 kmh E 5.1 mph8.2 kmh 30.14 in1020.7 mb 0.00 in0.0 mm 0.00 in/hr0.0 mm/hr 0.00 in0.0 mm
07:19 AM 27.9°F-2.3°C 16.6°F-8.6°C 62% 5.1 mph ENE8.2 kmh ENE 5.4 mph8.7 kmh 30.14 in1020.7 mb 0.00 in0.0 mm 0.00 in/hr0.0 mm/hr 0.00 in0.0 mm
07:24 AM 28.1°F-2.2°C 16.7°F-8.5°C 62% 3.7 mph E6.0 kmh E 6.0 mph9.7 kmh 30.14 in1020.7 mb 0.00 in0.0 mm 0.00 in/hr0.0 mm/hr 0.00 in0.0 mm
07:29 AM 28.3°F-2.1°C 16.9°F-8.4°C 62% 3.5 mph E5.6 kmh E 6.0 mph9.7 kmh 30.14 in1020.7 mb 0.00 in0.0 mm 0.00 in/hr0.0 mm/hr 0.00 in0.0 mm
07:34 AM 28.6°F-1.9°C 17.3°F-8.2°C 62% 3.0 mph E4.8 kmh E 4.9 mph7.9 kmh 30.14 in1020.7 mb 0.00 in0.0 mm 0.00 in/hr0.0 mm/hr 0.00 in0.0 mm
07:39 AM 29.0°F-1.7°C 17.6°F-8.0°C 62% 1.3 mph ENE2.1 kmh ENE 3.4 mph5.5 kmh 30.14 in1020.7 mb 0.00 in0.0 mm 0.00 in/hr0.0 mm/hr 0.00 in0.0 mm
07:44 AM 29.2°F-1.6°C 17.7°F-7.9°C 62% 0.7 mph NNW1.1 kmh NNW 2.5 mph4.0 kmh 30.14 in1020.7 mb 0.00 in0.0 mm 0.00 in/hr0.0 mm/hr 0.00 in0.0 mm
07:49 AM 29.5°F-1.4°C 18.1°F-7.7°C 62% 0.7 mph NNW1.1 kmh NNW 1.1 mph1.8 kmh 30.15 in1021.0 mb 0.00 in0.0 mm 0.00 in/hr0.0 mm/hr 0.00 in0.0 mm
07:54 AM 29.9°F-1.2°C 18.4°F-7.6°C 62% 0.3 mph N0.5 kmh N 1.1 mph1.8 kmh 30.15 in1021.0 mb 0.00 in0.0 mm 0.00 in/hr0.0 mm/hr 0.00 in0.0 mm
08:00 AM 30.4°F-0.9°C 18.9°F-7.3°C 62% 0.3 mph NNW0.5 kmh NNW 0.4 mph0.6 kmh 30.15 in1021.0 mb 0.00 in0.0 mm 0.00 in/hr0.0 mm/hr 0.00 in0.0 mm
08:05 AM 31.0°F-0.6°C 19.4°F-7.0°C 62% Calm Calm 0.4 mph0.6 kmh 30.15 in1021.0 mb 0.00 in0.0 mm 0.00 in/hr0.0 mm/hr 0.00 in0.0 mm
08:10 AM 31.7°F-0.2°C 20.2°F-6.6°C 62% 0.3 mph NW0.5 kmh NW 0.4 mph0.6 kmh 30.15 in1021.0 mb 0.00 in0.0 mm 0.00 in/hr0.0 mm/hr 0.00 in0.0 mm
08:15 AM 32.2°F0.1°C 20.4°F-6.4°C 61% 1.6 mph NNW2.6 kmh NNW 2.2 mph3.5 kmh 30.15 in1021.0 mb 0.00 in0.0 mm 0.00 in/hr0.0 mm/hr 0.00 in0.0 mm
08:20 AM 32.8°F0.4°C 20.4°F-6.4°C 60% 0.2 mph SW0.3 kmh SW 2.2 mph3.5 kmh 30.15 in1021.0 mb 0.00 in0.0 mm 0.00 in/hr0.0 mm/hr 0.00 in0.0 mm
08:25 AM 33.7°F0.9°C 21.6°F-5.8°C 61% 1.5 mph E2.4 kmh E 2.5 mph4.0 kmh 30.15 in1021.0 mb 0.00 in0.0 mm 0.00 in/hr0.0 mm/hr 0.00 in0.0 mm
08:30 AM 34.6°F1.4°C 22.1°F-5.5°C 60% 1.8 mph ESE2.9 kmh ESE 2.5 mph4.0 kmh 30.15 in1021.0 mb 0.00 in0.0 mm 0.00 in/hr0.0 mm/hr 0.00 in0.0 mm
08:35 AM 35.6°F2.0°C 23.2°F-4.9°C 60% 0.4 mph SE0.6 kmh SE 1.8 mph2.9 kmh 30.15 in1021.0 mb 0.00 in0.0 mm 0.00 in/hr0.0 mm/hr 0.00 in0.0 mm
08:40 AM 36.4°F2.4°C 23.9°F-4.5°C 60% 3.1 mph E5.0 kmh E 3.4 mph5.5 kmh 30.15 in1021.0 mb 0.00 in0.0 mm 0.00 in/hr0.0 mm/hr 0.00 in0.0 mm
08:45 AM 37.4°F3.0°C 24.8°F-4.0°C 60% 1.7 mph E2.7 kmh E 3.4 mph5.5 kmh 30.15 in1021.0 mb 0.00 in0.0 mm 0.00 in/hr0.0 mm/hr 0.00 in0.0 mm
08:49 AM 38.2°F3.4°C 25.5°F-3.6°C 60% 2.1 mph ENE3.4 kmh ENE 2.7 mph4.3 kmh 30.15 in1021.0 mb 0.00 in0.0 mm 0.00 in/hr0.0 mm/hr 0.00 in0.0 mm
08:54 AM 39.2°F4.0°C 25.6°F-3.6°C 58% 1.8 mph NE2.9 kmh NE 3.4 mph5.5 kmh 30.15 in1021.0 mb 0.00 in0.0 mm 0.00 in/hr0.0 mm/hr 0.00 in0.0 mm
09:00 AM 40.1°F4.5°C 26.0°F-3.3°C 57% 3.2 mph E5.1 kmh E 6.0 mph9.7 kmh 30.15 in1021.0 mb 0.00 in0.0 mm 0.00 in/hr0.0 mm/hr 0.00 in0.0 mm
09:05 AM 41.0°F5.0°C 26.5°F-3.1°C 56% 2.1 mph NNE3.4 kmh NNE 6.0 mph9.7 kmh 30.15 in1021.0 mb 0.00 in0.0 mm 0.00 in/hr0.0 mm/hr 0.00 in0.0 mm
09:10 AM 41.8°F5.4°C 26.7°F-2.9°C 55% 2.6 mph NE4.2 kmh NE 4.7 mph7.6 kmh 30.15 in1021.0 mb 0.00 in0.0 mm 0.00 in/hr0.0 mm/hr 0.00 in0.0 mm
09:15 AM 42.7°F5.9°C 27.5°F-2.5°C 55% 0.8 mph ENE1.3 kmh ENE 3.1 mph5.0 kmh 30.15 in1021.0 mb 0.00 in0.0 mm 0.00 in/hr0.0 mm/hr 0.00 in0.0 mm
09:20 AM 43.6°F6.4°C 28.0°F-2.2°C 54% 4.1 mph NE6.6 kmh NE 5.1 mph8.2 kmh 30.15 in1021.0 mb 0.00 in0.0 mm 0.00 in/hr0.0 mm/hr 0.00 in0.0 mm
09:25 AM 44.3°F6.8°C 28.2°F-2.1°C 53% 2.6 mph NNE4.2 kmh NNE 5.1 mph8.2 kmh 30.15 in1021.0 mb 0.00 in0.0 mm 0.00 in/hr0.0 mm/hr 0.00 in0.0 mm
09:30 AM 45.0°F7.2°C 28.9°F-1.7°C 53% 2.5 mph NE4.0 kmh NE 4.7 mph7.6 kmh 30.16 in1021.3 mb 0.00 in0.0 mm 0.00 in/hr0.0 mm/hr 0.00 in0.0 mm
09:35 AM 45.9°F7.7°C 29.3°F-1.5°C 52% 2.0 mph ENE3.2 kmh ENE 4.9 mph7.9 kmh 30.15 in1021.0 mb 0.00 in0.0 mm 0.00 in/hr0.0 mm/hr 0.00 in0.0 mm
09:40 AM 47.0°F8.3°C 29.3°F-1.5°C 50% 3.1 mph ENE5.0 kmh ENE 4.9 mph7.9 kmh 30.15 in1021.0 mb 0.00 in0.0 mm 0.00 in/hr0.0 mm/hr 0.00 in0.0 mm
09:45 AM 47.7°F8.7°C 29.4°F-1.4°C 49% 1.3 mph NNE2.1 kmh NNE 5.8 mph9.3 kmh 30.15 in1021.0 mb 0.00 in0.0 mm 0.00 in/hr0.0 mm/hr 0.00 in0.0 mm
09:50 AM 48.6°F9.2°C 29.7°F-1.3°C 48% 2.0 mph 3.2 kmh 5.8 mph9.3 kmh 30.15 in1021.0 mb 0.00 in0.0 mm 0.00 in/hr0.0 mm/hr 0.00 in0.0 mm
09:55 AM 49.5°F9.7°C 30.1°F-1.1°C 47% 0.4 mph 0.6 kmh 2.9 mph4.7 kmh 30.15 in1021.0 mb 0.00 in0.0 mm 0.00 in/hr0.0 mm/hr 0.00 in0.0 mm
10:00 AM 50.4°F10.2°C 30.9°F-0.6°C 47% 0.7 mph NE1.1 kmh NE 2.9 mph4.7 kmh 30.15 in1021.0 mb 0.00 in0.0 mm 0.00 in/hr0.0 mm/hr 0.00 in0.0 mm
10:05 AM 51.3°F10.7°C 31.2°F-0.4°C 46% 1.7 mph E2.7 kmh E 1.8 mph2.9 kmh 30.15 in1021.0 mb 0.00 in0.0 mm 0.00 in/hr0.0 mm/hr 0.00 in0.0 mm
10:10 AM 52.2°F11.2°C 31.4°F-0.3°C 45% 0.2 mph NE0.3 kmh NE 1.8 mph2.9 kmh 30.15 in1021.0 mb 0.00 in0.0 mm 0.00 in/hr0.0 mm/hr 0.00 in0.0 mm
10:15 AM 53.5°F11.9°C 32.5°F0.3°C 45% 1.0 mph NNW1.6 kmh NNW 1.3 mph2.1 kmh 30.14 in1020.7 mb 0.00 in0.0 mm 0.00 in/hr0.0 mm/hr 0.00 in0.0 mm
10:20 AM 54.4°F12.4°C 32.2°F0.1°C 43% 0.7 mph NNW1.1 kmh NNW 3.6 mph5.8 kmh 30.14 in1020.7 mb 0.00 in0.0 mm 0.00 in/hr0.0 mm/hr 0.00 in0.0 mm
10:25 AM 55.3°F12.9°C 32.5°F0.3°C 42% Calm Calm 3.6 mph5.8 kmh 30.14 in1020.7 mb 0.00 in0.0 mm 0.00 in/hr0.0 mm/hr 0.00 in0.0 mm
10:30 AM 56.3°F13.5°C 32.9°F0.5°C 41% 0.8 mph N1.3 kmh N 1.6 mph2.6 kmh 30.14 in1020.7 mb 0.00 in0.0 mm 0.00 in/hr0.0 mm/hr 0.00 in0.0 mm
10:35 AM 57.6°F14.2°C 33.5°F0.8°C 40% 0.2 mph ESE0.3 kmh ESE 1.6 mph2.6 kmh 30.14 in1020.7 mb 0.00 in0.0 mm 0.00 in/hr0.0 mm/hr 0.00 in0.0 mm
10:40 AM 58.5°F14.7°C 33.6°F0.9°C 39% 3.0 mph ESE4.8 kmh ESE 4.5 mph7.2 kmh 30.14 in1020.7 mb 0.00 in0.0 mm 0.00 in/hr0.0 mm/hr 0.00 in0.0 mm
10:45 AM 59.2°F15.1°C 33.5°F0.8°C 38% 3.3 mph NE5.3 kmh NE 5.6 mph9.0 kmh 30.14 in1020.7 mb 0.00 in0.0 mm 0.00 in/hr0.0 mm/hr 0.00 in0.0 mm
10:50 AM 59.8°F15.4°C 32.6°F0.3°C 36% 4.7 mph E7.6 kmh E 6.0 mph9.7 kmh 30.14 in1020.7 mb 0.00 in0.0 mm 0.00 in/hr0.0 mm/hr 0.00 in0.0 mm
10:55 AM 60.7°F15.9°C 33.3°F0.7°C 36% 1.3 mph E2.1 kmh E 6.0 mph9.7 kmh 30.14 in1020.7 mb 0.00 in0.0 mm 0.00 in/hr0.0 mm/hr 0.00 in0.0 mm
11:01 AM 61.6°F16.4°C 32.7°F0.4°C 34% 2.6 mph N4.2 kmh N 4.0 mph6.4 kmh 30.13 in1020.3 mb 0.00 in0.0 mm 0.00 in/hr0.0 mm/hr 0.00 in0.0 mm
11:05 AM 61.9°F16.6°C 32.3°F0.2°C 33% 2.7 mph NNW4.3 kmh NNW 4.0 mph6.4 kmh 30.13 in1020.3 mb 0.00 in0.0 mm 0.00 in/hr0.0 mm/hr 0.00 in0.0 mm
11:10 AM 62.5°F16.9°C 32.8°F0.4°C 33% 3.3 mph 5.3 kmh 3.8 mph6.1 kmh 30.13 in1020.3 mb 0.00 in0.0 mm 0.00 in/hr0.0 mm/hr 0.00 in0.0 mm
11:15 AM 63.0°F17.2°C 33.3°F0.7°C 33% 2.9 mph NE4.7 kmh NE 4.0 mph6.4 kmh 30.13 in1020.3 mb 0.00 in0.0 mm 0.00 in/hr0.0 mm/hr 0.00 in0.0 mm
11:20 AM 63.9°F17.7°C 33.4°F0.8°C 32% 2.8 mph N4.5 kmh N 4.0 mph6.4 kmh 30.12 in1020.0 mb 0.00 in0.0 mm 0.00 in/hr0.0 mm/hr 0.00 in0.0 mm
11:25 AM 64.4°F18.0°C 33.1°F0.6°C 31% 0.8 mph 1.3 kmh 4.9 mph7.9 kmh 30.12 in1020.0 mb 0.00 in0.0 mm 0.00 in/hr0.0 mm/hr 0.00 in0.0 mm
11:30 AM 65.2°F18.4°C 33.8°F1.0°C 31% 1.9 mph ESE3.1 kmh ESE 5.6 mph9.0 kmh 30.12 in1020.0 mb 0.00 in0.0 mm 0.00 in/hr0.0 mm/hr 0.00 in0.0 mm
11:35 AM 66.1°F18.9°C 34.6°F1.4°C 31% 4.3 mph NE6.9 kmh NE 5.6 mph9.0 kmh 30.12 in1020.0 mb 0.00 in0.0 mm 0.00 in/hr0.0 mm/hr 0.00 in0.0 mm
11:40 AM 66.8°F19.3°C 34.5°F1.4°C 30% 3.7 mph 6.0 kmh 4.5 mph7.2 kmh 30.12 in1020.0 mb 0.00 in0.0 mm 0.00 in/hr0.0 mm/hr 0.00 in0.0 mm
11:45 AM 67.0°F19.4°C 33.6°F0.9°C 29% 4.4 mph 7.1 kmh 6.3 mph10.1 kmh 30.12 in1020.0 mb 0.00 in0.0 mm 0.00 in/hr0.0 mm/hr 0.00 in0.0 mm
11:50 AM 67.3°F19.6°C 33.9°F1.1°C 29% 1.9 mph WNW3.1 kmh WNW 6.3 mph10.1 kmh 30.12 in1020.0 mb 0.00 in0.0 mm 0.00 in/hr0.0 mm/hr 0.00 in0.0 mm
11:55 AM 67.9°F19.9°C 34.3°F1.3°C 29% 1.9 mph WSW3.1 kmh WSW 3.4 mph5.5 kmh 30.12 in1020.0 mb 0.00 in0.0 mm 0.00 in/hr0.0 mm/hr 0.00 in0.0 mm
12:01 PM 68.4°F20.2°C 34.8°F1.6°C 29% 3.0 mph NW4.8 kmh NW 4.3 mph6.9 kmh 30.11 in1019.6 mb 0.00 in0.0 mm 0.00 in/hr0.0 mm/hr 0.00 in0.0 mm
12:06 PM 68.9°F20.5°C 35.3°F1.8°C 29% 2.9 mph SSW4.7 kmh SSW 5.4 mph8.7 kmh 30.11 in1019.6 mb 0.00 in0.0 mm 0.00 in/hr0.0 mm/hr 0.00 in0.0 mm
12:11 PM 69.8°F21.0°C 36.1°F2.3°C 29% 0.9 mph SSW1.4 kmh SSW 5.4 mph8.7 kmh 30.11 in1019.6 mb 0.00 in0.0 mm 0.00 in/hr0.0 mm/hr 0.00 in0.0 mm
12:16 PM 70.9°F21.6°C 37.0°F2.8°C 29% 1.4 mph SW2.3 kmh SW 4.9 mph7.9 kmh 30.11 in1019.6 mb 0.00 in0.0 mm 0.00 in/hr0.0 mm/hr 0.00 in0.0 mm
12:21 PM 71.6°F22.0°C 36.6°F2.6°C 28% 4.5 mph SW7.2 kmh SW 6.3 mph10.1 kmh 30.10 in1019.3 mb 0.00 in0.0 mm 0.00 in/hr0.0 mm/hr 0.00 in0.0 mm
12:26 PM 72.0°F22.2°C 36.9°F2.7°C 28% 2.8 mph SW4.5 kmh SW 6.3 mph10.1 kmh 30.10 in1019.3 mb 0.00 in0.0 mm 0.00 in/hr0.0 mm/hr 0.00 in0.0 mm
12:31 PM 72.7°F22.6°C 35.5°F1.9°C 26% 2.7 mph NNE4.3 kmh NNE 3.6 mph5.8 kmh 30.09 in1019.0 mb 0.00 in0.0 mm 0.00 in/hr0.0 mm/hr 0.00 in0.0 mm
12:36 PM 73.1°F22.8°C 34.8°F1.6°C 25% Calm Calm 3.1 mph5.0 kmh 30.09 in1019.0 mb 0.00 in0.0 mm 0.00 in/hr0.0 mm/hr 0.00 in0.0 mm
12:40 PM 73.8°F23.2°C 36.5°F2.5°C 26% 0.8 mph 1.3 kmh 2.5 mph4.0 kmh 30.09 in1019.0 mb 0.00 in0.0 mm 0.00 in/hr0.0 mm/hr 0.00 in0.0 mm
12:45 PM 74.7°F23.7°C 36.2°F2.3°C 25% 6.9 mph SW11.1 kmh SW 10.1 mph16.3 kmh 30.09 in1019.0 mb 0.00 in0.0 mm 0.00 in/hr0.0 mm/hr 0.00 in0.0 mm
12:50 PM 75.2°F24.0°C 34.6°F1.4°C 23% 11.0 mph SSW17.7 kmh SSW 13.4 mph21.6 kmh 30.08 in1018.6 mb 0.00 in0.0 mm 0.00 in/hr0.0 mm/hr 0.00 in0.0 mm
12:55 PM 75.4°F24.1°C 34.8°F1.6°C 23% 5.2 mph S8.4 kmh S 13.4 mph21.6 kmh 30.08 in1018.6 mb 0.00 in0.0 mm 0.00 in/hr0.0 mm/hr 0.00 in0.0 mm
01:01 PM 76.0°F24.4°C 35.2°F1.8°C 23% 4.8 mph SSW7.7 kmh SSW 12.1 mph19.5 kmh 30.08 in1018.6 mb 0.00 in0.0 mm 0.00 in/hr0.0 mm/hr 0.00 in0.0 mm
01:06 PM 76.3°F24.6°C 35.5°F1.9°C 23% 9.6 mph SW15.4 kmh SW 19.2 mph30.9 kmh 30.08 in1018.6 mb 0.00 in0.0 mm 0.00 in/hr0.0 mm/hr 0.00 in0.0 mm
01:11 PM 76.3°F24.6°C 35.5°F1.9°C 23% 8.1 mph SW13.0 kmh SW 19.2 mph30.9 kmh 30.08 in1018.6 mb 0.00 in0.0 mm 0.00 in/hr0.0 mm/hr 0.00 in0.0 mm
01:16 PM 76.1°F24.5°C 35.4°F1.9°C 23% 5.5 mph S8.9 kmh S 9.8 mph15.8 kmh 30.07 in1018.3 mb 0.00 in0.0 mm 0.00 in/hr0.0 mm/hr 0.00 in0.0 mm
01:21 PM 76.5°F24.7°C 34.6°F1.4°C 22% 7.8 mph SW12.6 kmh SW 9.2 mph14.8 kmh 30.07 in1018.3 mb 0.00 in0.0 mm 0.00 in/hr0.0 mm/hr 0.00 in0.0 mm
01:26 PM 76.9°F24.9°C 34.9°F1.6°C 22% 7.8 mph SW12.6 kmh SW 12.3 mph19.8 kmh 30.07 in1018.3 mb 0.00 in0.0 mm 0.00 in/hr0.0 mm/hr 0.00 in0.0 mm
01:31 PM 76.9°F24.9°C 34.9°F1.6°C 22% 4.8 mph SW7.7 kmh SW 12.3 mph19.8 kmh 30.07 in1018.3 mb 0.00 in0.0 mm 0.00 in/hr0.0 mm/hr 0.00 in0.0 mm
01:36 PM 77.2°F25.1°C 35.2°F1.8°C 22% 4.1 mph WSW6.6 kmh WSW 9.2 mph14.8 kmh 30.07 in1018.3 mb 0.00 in0.0 mm 0.00 in/hr0.0 mm/hr 0.00 in0.0 mm
01:41 PM 77.0°F25.0°C 34.0°F1.1°C 21% 8.5 mph SW13.7 kmh SW 9.8 mph15.8 kmh 30.06 in1017.9 mb 0.00 in0.0 mm 0.00 in/hr0.0 mm/hr 0.00 in0.0 mm
01:46 PM 77.4°F25.2°C 34.3°F1.3°C 21% 3.6 mph SSW5.8 kmh SSW 10.5 mph16.9 kmh 30.06 in1017.9 mb 0.00 in0.0 mm 0.00 in/hr0.0 mm/hr 0.00 in0.0 mm
01:51 PM 77.8°F25.4°C 31.9°F-0.1°C 19% 9.6 mph SW15.4 kmh SW 10.5 mph16.9 kmh 30.06 in1017.9 mb 0.00 in0.0 mm 0.00 in/hr0.0 mm/hr 0.00 in0.0 mm
01:56 PM 77.8°F25.4°C 34.6°F1.4°C 21% 6.2 mph WSW10.0 kmh WSW 10.3 mph16.6 kmh 30.06 in1017.9 mb 0.00 in0.0 mm 0.00 in/hr0.0 mm/hr 0.00 in0.0 mm
02:01 PM 77.8°F25.4°C 34.6°F1.4°C 21% 8.8 mph SW14.2 kmh SW 10.7 mph17.2 kmh 30.06 in1017.9 mb 0.00 in0.0 mm 0.00 in/hr0.0 mm/hr 0.00 in0.0 mm
02:06 PM 77.6°F25.3°C 31.7°F-0.2°C 19% 4.7 mph SW7.6 kmh SW 10.7 mph17.2 kmh 30.05 in1017.6 mb 0.00 in0.0 mm 0.00 in/hr0.0 mm/hr 0.00 in0.0 mm
02:11 PM 77.8°F25.4°C 31.9°F-0.1°C 19% 7.3 mph SW11.7 kmh SW 8.5 mph13.7 kmh 30.05 in1017.6 mb 0.00 in0.0 mm 0.00 in/hr0.0 mm/hr 0.00 in0.0 mm
02:16 PM 77.9°F25.5°C 34.8°F1.6°C 21% 6.0 mph WSW9.7 kmh WSW 8.3 mph13.4 kmh 30.05 in1017.6 mb 0.00 in0.0 mm 0.00 in/hr0.0 mm/hr 0.00 in0.0 mm
02:21 PM 78.1°F25.6°C 32.1°F0.1°C 19% 6.2 mph SW10.0 kmh SW 10.1 mph16.3 kmh 30.05 in1017.6 mb 0.00 in0.0 mm 0.00 in/hr0.0 mm/hr 0.00 in0.0 mm
02:26 PM 78.3°F25.7°C 32.3°F0.2°C 19% 5.5 mph S8.9 kmh S 10.1 mph16.3 kmh 30.05 in1017.6 mb 0.00 in0.0 mm 0.00 in/hr0.0 mm/hr 0.00 in0.0 mm
02:31 PM 78.5°F25.8°C 30.8°F-0.7°C 18% 8.5 mph SW13.7 kmh SW 11.0 mph17.7 kmh 30.05 in1017.6 mb 0.00 in0.0 mm 0.00 in/hr0.0 mm/hr 0.00 in0.0 mm
02:36 PM 77.9°F25.5°C 28.6°F-1.9°C 17% 6.0 mph SW9.7 kmh SW 11.4 mph18.3 kmh 30.05 in1017.6 mb 0.00 in0.0 mm 0.00 in/hr0.0 mm/hr 0.00 in0.0 mm
02:41 PM 77.9°F25.5°C 30.3°F-0.9°C 18% 5.6 mph SW9.0 kmh SW 11.4 mph18.3 kmh 30.04 in1017.3 mb 0.00 in0.0 mm 0.00 in/hr0.0 mm/hr 0.00 in0.0 mm
02:46 PM 78.1°F25.6°C 30.5°F-0.8°C 18% 4.4 mph SW7.1 kmh SW 9.2 mph14.8 kmh 30.05 in1017.6 mb 0.00 in0.0 mm 0.00 in/hr0.0 mm/hr 0.00 in0.0 mm
02:51 PM 78.1°F25.6°C 30.5°F-0.8°C 18% 5.3 mph WSW8.5 kmh WSW 9.8 mph15.8 kmh 30.05 in1017.6 mb 0.00 in0.0 mm 0.00 in/hr0.0 mm/hr 0.00 in0.0 mm
02:56 PM 78.1°F25.6°C 28.8°F-1.8°C 17% 4.6 mph SW7.4 kmh SW 9.8 mph15.8 kmh 30.04 in1017.3 mb 0.00 in0.0 mm 0.00 in/hr0.0 mm/hr 0.00 in0.0 mm
03:01 PM 78.1°F25.6°C 30.5°F-0.8°C 18% 4.8 mph S7.7 kmh S 9.8 mph15.8 kmh 30.04 in1017.3 mb 0.00 in0.0 mm 0.00 in/hr0.0 mm/hr 0.00 in0.0 mm
03:06 PM 78.5°F25.8°C 29.1°F-1.6°C 17% 7.5 mph SW12.1 kmh SW 10.3 mph16.6 kmh 30.04 in1017.3 mb 0.00 in0.0 mm 0.00 in/hr0.0 mm/hr 0.00 in0.0 mm
03:11 PM 78.5°F25.8°C 29.1°F-1.6°C 17% 6.8 mph SW10.9 kmh SW 10.3 mph16.6 kmh 30.04 in1017.3 mb 0.00 in0.0 mm 0.00 in/hr0.0 mm/hr 0.00 in0.0 mm
03:16 PM 78.5°F25.8°C 30.8°F-0.7°C 18% 2.7 mph SSW4.3 kmh SSW 7.6 mph12.2 kmh 30.04 in1017.3 mb 0.00 in0.0 mm 0.00 in/hr0.0 mm/hr 0.00 in0.0 mm
03:21 PM 78.8°F26.0°C 29.3°F-1.5°C 17% 5.9 mph SW9.5 kmh SW 6.5 mph10.5 kmh 30.04 in1017.3 mb 0.00 in0.0 mm 0.00 in/hr0.0 mm/hr 0.00 in0.0 mm
03:26 PM 78.8°F26.0°C 29.3°F-1.5°C 17% 7.8 mph SW12.6 kmh SW 9.4 mph15.1 kmh 30.04 in1017.3 mb 0.00 in0.0 mm 0.00 in/hr0.0 mm/hr 0.00 in0.0 mm
03:31 PM 78.5°F25.8°C 29.1°F-1.6°C 17% 8.4 mph SW13.5 kmh SW 12.1 mph19.5 kmh 30.04 in1017.3 mb 0.00 in0.0 mm 0.00 in/hr0.0 mm/hr 0.00 in0.0 mm
03:36 PM 78.1°F25.6°C 28.8°F-1.8°C 17% 13.4 mph S21.6 kmh S 15.7 mph25.3 kmh 30.04 in1017.3 mb 0.00 in0.0 mm 0.00 in/hr0.0 mm/hr 0.00 in0.0 mm
03:41 PM 78.1°F25.6°C 28.8°F-1.8°C 17% 8.1 mph S13.0 kmh S 15.7 mph25.3 kmh 30.04 in1017.3 mb 0.00 in0.0 mm 0.00 in/hr0.0 mm/hr 0.00 in0.0 mm
03:46 PM 78.1°F25.6°C 28.8°F-1.8°C 17% 9.9 mph SSW15.9 kmh SSW 13.9 mph22.4 kmh 30.04 in1017.3 mb 0.00 in0.0 mm 0.00 in/hr0.0 mm/hr 0.00 in0.0 mm
03:51 PM 77.9°F25.5°C 28.6°F-1.9°C 17% 8.9 mph SSE14.3 kmh SSE 13.9 mph22.4 kmh 30.04 in1017.3 mb 0.00 in0.0 mm 0.00 in/hr0.0 mm/hr 0.00 in0.0 mm
03:56 PM 77.8°F25.4°C 28.5°F-1.9°C 17% 10.4 mph SE16.7 kmh SE 12.1 mph19.5 kmh 30.04 in1017.3 mb 0.00 in0.0 mm 0.00 in/hr0.0 mm/hr 0.00 in0.0 mm
04:02 PM 77.6°F25.3°C 28.4°F-2.0°C 17% 9.9 mph SW15.9 kmh SW 13.6 mph21.9 kmh 30.04 in1017.3 mb 0.00 in0.0 mm 0.00 in/hr0.0 mm/hr 0.00 in0.0 mm
04:07 PM 77.4°F25.2°C 28.3°F-2.1°C 17% 8.4 mph SSW13.5 kmh SSW 13.6 mph21.9 kmh 30.04 in1017.3 mb 0.00 in0.0 mm 0.00 in/hr0.0 mm/hr 0.00 in0.0 mm
04:12 PM 77.2°F25.1°C 29.8°F-1.2°C 18% 6.3 mph S10.1 kmh S 11.4 mph18.3 kmh 30.04 in1017.3 mb 0.00 in0.0 mm 0.00 in/hr0.0 mm/hr 0.00 in0.0 mm
04:17 PM 77.4°F25.2°C 29.9°F-1.2°C 18% 6.8 mph S10.9 kmh S 8.5 mph13.7 kmh 30.04 in1017.3 mb 0.00 in0.0 mm 0.00 in/hr0.0 mm/hr 0.00 in0.0 mm
04:22 PM 77.4°F25.2°C 29.9°F-1.2°C 18% 6.1 mph SSE9.8 kmh SSE 8.5 mph13.7 kmh 30.04 in1017.3 mb 0.00 in0.0 mm 0.00 in/hr0.0 mm/hr 0.00 in0.0 mm
04:26 PM 77.2°F25.1°C 29.8°F-1.2°C 18% 7.3 mph SE11.7 kmh SE 9.2 mph14.8 kmh 30.04 in1017.3 mb 0.00 in0.0 mm 0.00 in/hr0.0 mm/hr 0.00 in0.0 mm
04:31 PM 77.0°F25.0°C 29.6°F-1.3°C 18% 7.2 mph S11.6 kmh S 9.2 mph14.8 kmh 30.03 in1016.9 mb 0.00 in0.0 mm 0.00 in/hr0.0 mm/hr 0.00 in0.0 mm
04:36 PM 76.9°F24.9°C 29.5°F-1.4°C 18% 6.1 mph SSE9.8 kmh SSE 8.7 mph14.0 kmh 30.03 in1016.9 mb 0.00 in0.0 mm 0.00 in/hr0.0 mm/hr 0.00 in0.0 mm
04:41 PM 76.7°F24.8°C 29.3°F-1.5°C 18% 7.9 mph S12.7 kmh S 8.5 mph13.7 kmh 30.03 in1016.9 mb 0.00 in0.0 mm 0.00 in/hr0.0 mm/hr 0.00 in0.0 mm
04:46 PM 76.1°F24.5°C 28.9°F-1.7°C 18% 7.2 mph S11.6 kmh S 8.5 mph13.7 kmh 30.03 in1016.9 mb 0.00 in0.0 mm 0.00 in/hr0.0 mm/hr 0.00 in0.0 mm
04:51 PM 76.0°F24.4°C 28.8°F-1.8°C 18% 6.6 mph SSE10.6 kmh SSE 10.1 mph16.3 kmh 30.03 in1016.9 mb 0.00 in0.0 mm 0.00 in/hr0.0 mm/hr 0.00 in0.0 mm
04:56 PM 75.6°F24.2°C 28.4°F-2.0°C 18% 6.0 mph SE9.7 kmh SE 10.1 mph16.3 kmh 30.02 in1016.6 mb 0.00 in0.0 mm 0.00 in/hr0.0 mm/hr 0.00 in0.0 mm
05:02 PM 75.4°F24.1°C 28.4°F-2.0°C 18% 5.1 mph S8.2 kmh S 8.3 mph13.4 kmh 30.03 in1016.9 mb 0.00 in0.0 mm 0.00 in/hr0.0 mm/hr 0.00 in0.0 mm
05:07 PM 75.1°F23.9°C 28.1°F-2.2°C 18% 3.4 mph SE5.5 kmh SE 7.6 mph12.2 kmh 30.03 in1016.9 mb 0.00 in0.0 mm 0.00 in/hr0.0 mm/hr 0.00 in0.0 mm
05:12 PM 74.9°F23.8°C 27.9°F-2.3°C 18% 5.1 mph SE8.2 kmh SE 6.3 mph10.1 kmh 30.02 in1016.6 mb 0.00 in0.0 mm 0.00 in/hr0.0 mm/hr 0.00 in0.0 mm
05:17 PM 74.5°F23.6°C 27.6°F-2.4°C 18% 3.5 mph SE5.6 kmh SE 5.4 mph8.7 kmh 30.02 in1016.6 mb 0.00 in0.0 mm 0.00 in/hr0.0 mm/hr 0.00 in0.0 mm
05:22 PM 74.2°F23.4°C 29.0°F-1.7°C 19% 3.2 mph SE5.1 kmh SE 4.7 mph7.6 kmh 30.02 in1016.6 mb 0.00 in0.0 mm 0.00 in/hr0.0 mm/hr 0.00 in0.0 mm
05:27 PM 73.6°F23.1°C 26.9°F-2.8°C 18% 4.0 mph SE6.4 kmh SE 4.7 mph7.6 kmh 30.02 in1016.6 mb 0.00 in0.0 mm 0.00 in/hr0.0 mm/hr 0.00 in0.0 mm
05:32 PM 72.9°F22.7°C 27.9°F-2.3°C 19% 3.9 mph SE6.3 kmh SE 4.3 mph6.9 kmh 30.02 in1016.6 mb 0.00 in0.0 mm 0.00 in/hr0.0 mm/hr 0.00 in0.0 mm
05:37 PM 72.2°F22.3°C 27.3°F-2.6°C 19% 3.3 mph SE5.3 kmh SE 4.3 mph6.9 kmh 30.02 in1016.6 mb 0.00 in0.0 mm 0.00 in/hr0.0 mm/hr 0.00 in0.0 mm
05:42 PM 71.3°F21.8°C 26.6°F-3.0°C 19% 3.4 mph SE5.5 kmh SE 3.4 mph5.5 kmh 30.02 in1016.6 mb 0.00 in0.0 mm 0.00 in/hr0.0 mm/hr 0.00 in0.0 mm
05:47 PM 70.2°F21.2°C 25.7°F-3.5°C 19% 3.3 mph SE5.3 kmh SE 3.6 mph5.8 kmh 30.02 in1016.6 mb 0.00 in0.0 mm 0.00 in/hr0.0 mm/hr 0.00 in0.0 mm
05:52 PM 69.5°F20.8°C 25.1°F-3.8°C 19% 3.2 mph SE5.1 kmh SE 3.6 mph5.8 kmh 30.02 in1016.6 mb 0.00 in0.0 mm 0.00 in/hr0.0 mm/hr 0.00 in0.0 mm
05:57 PM 68.6°F20.3°C 24.4°F-4.2°C 19% 3.5 mph SE5.6 kmh SE 3.6 mph5.8 kmh 30.02 in1016.6 mb 0.00 in0.0 mm 0.00 in/hr0.0 mm/hr 0.00 in0.0 mm
06:02 PM 67.9°F19.9°C 25.4°F-3.7°C 20% 1.8 mph ESE2.9 kmh ESE 3.6 mph5.8 kmh 30.02 in1016.6 mb 0.00 in0.0 mm 0.00 in/hr0.0 mm/hr 0.00 in0.0 mm
06:07 PM 67.1°F19.5°C 25.7°F-3.5°C 21% 2.3 mph SE3.7 kmh SE 3.4 mph5.5 kmh 30.02 in1016.6 mb 0.00 in0.0 mm 0.00 in/hr0.0 mm/hr 0.00 in0.0 mm
06:12 PM 66.2°F19.0°C 24.9°F-3.9°C 21% 3.3 mph ESE5.3 kmh ESE 3.6 mph5.8 kmh 30.02 in1016.6 mb 0.00 in0.0 mm 0.00 in/hr0.0 mm/hr 0.00 in0.0 mm
06:17 PM 65.5°F18.6°C 24.4°F-4.2°C 21% 2.7 mph ESE4.3 kmh ESE 3.8 mph6.1 kmh 30.01 in1016.3 mb 0.00 in0.0 mm 0.00 in/hr0.0 mm/hr 0.00 in0.0 mm
06:22 PM 64.8°F18.2°C 23.8°F-4.6°C 21% 2.3 mph SE3.7 kmh SE 3.8 mph6.1 kmh 30.01 in1016.3 mb 0.00 in0.0 mm 0.00 in/hr0.0 mm/hr 0.00 in0.0 mm
06:27 PM 64.3°F17.9°C 23.3°F-4.8°C 21% 3.2 mph ESE5.1 kmh ESE 3.6 mph5.8 kmh 30.01 in1016.3 mb 0.00 in0.0 mm 0.00 in/hr0.0 mm/hr 0.00 in0.0 mm
06:32 PM 63.7°F17.6°C 23.9°F-4.5°C 22% 0.9 mph ESE1.4 kmh ESE 3.6 mph5.8 kmh 30.01 in1016.3 mb 0.00 in0.0 mm 0.00 in/hr0.0 mm/hr 0.00 in0.0 mm
06:37 PM 63.2°F17.3°C 23.5°F-4.7°C 22% 0.9 mph 1.4 kmh 2.7 mph4.3 kmh 30.01 in1016.3 mb 0.00 in0.0 mm 0.00 in/hr0.0 mm/hr 0.00 in0.0 mm
06:42 PM 62.6°F17.0°C 23.1°F-4.9°C 22% 0.8 mph 1.3 kmh 0.9 mph1.4 kmh 30.01 in1016.3 mb 0.00 in0.0 mm 0.00 in/hr0.0 mm/hr 0.00 in0.0 mm
06:47 PM 62.1°F16.7°C 22.6°F-5.2°C 22% 3.4 mph 5.5 kmh 4.9 mph7.9 kmh 30.02 in1016.6 mb 0.00 in0.0 mm 0.00 in/hr0.0 mm/hr 0.00 in0.0 mm
06:52 PM 61.6°F16.4°C 21.2°F-6.0°C 21% 4.7 mph 7.6 kmh 5.1 mph8.2 kmh 30.02 in1016.6 mb 0.00 in0.0 mm 0.00 in/hr0.0 mm/hr 0.00 in0.0 mm
06:57 PM 61.0°F16.1°C 20.7°F-6.3°C 21% 4.3 mph 6.9 kmh 5.1 mph8.2 kmh 30.02 in1016.6 mb 0.00 in0.0 mm 0.00 in/hr0.0 mm/hr 0.00 in0.0 mm
07:02 PM 60.3°F15.7°C 20.1°F-6.6°C 21% 4.3 mph 6.9 kmh 4.7 mph7.6 kmh 30.02 in1016.6 mb 0.00 in0.0 mm 0.00 in/hr0.0 mm/hr 0.00 in0.0 mm
07:07 PM 59.4°F15.2°C 20.3°F-6.5°C 22% 2.4 mph NNW3.9 kmh NNW 4.7 mph7.6 kmh 30.02 in1016.6 mb 0.00 in0.0 mm 0.00 in/hr0.0 mm/hr 0.00 in0.0 mm
07:12 PM 58.3°F14.6°C 19.4°F-7.0°C 22% 2.6 mph 4.2 kmh 4.0 mph6.4 kmh 30.02 in1016.6 mb 0.00 in0.0 mm 0.00 in/hr0.0 mm/hr 0.00 in0.0 mm
07:17 PM 57.2°F14.0°C 18.5°F-7.5°C 22% 4.8 mph N7.7 kmh N 5.4 mph8.7 kmh 30.03 in1016.9 mb 0.00 in0.0 mm 0.00 in/hr0.0 mm/hr 0.00 in0.0 mm
07:22 PM 56.2°F13.4°C 18.6°F-7.4°C 23% 4.4 mph 7.1 kmh 6.3 mph10.1 kmh 30.02 in1016.6 mb 0.00 in0.0 mm 0.00 in/hr0.0 mm/hr 0.00 in0.0 mm
07:27 PM 55.6°F13.1°C 18.1°F-7.7°C 23% 5.3 mph 8.5 kmh 6.3 mph10.1 kmh 30.02 in1016.6 mb 0.00 in0.0 mm 0.00 in/hr0.0 mm/hr 0.00 in0.0 mm
07:32 PM 54.7°F12.6°C 18.3°F-7.6°C 24% 5.1 mph 8.2 kmh 8.3 mph13.4 kmh 30.02 in1016.6 mb 0.00 in0.0 mm 0.00 in/hr0.0 mm/hr 0.00 in0.0 mm
07:37 PM 54.4°F12.4°C 17.9°F-7.8°C 24% 3.5 mph 5.6 kmh 8.3 mph13.4 kmh 30.02 in1016.6 mb 0.00 in0.0 mm 0.00 in/hr0.0 mm/hr 0.00 in0.0 mm
07:42 PM 54.0°F12.2°C 18.5°F-7.5°C 25% 4.8 mph N7.7 kmh N 5.4 mph8.7 kmh 30.02 in1016.6 mb 0.00 in0.0 mm 0.00 in/hr0.0 mm/hr 0.00 in0.0 mm
07:47 PM 53.5°F11.9°C 18.1°F-7.7°C 25% 5.1 mph N8.2 kmh N 6.5 mph10.5 kmh 30.03 in1016.9 mb 0.00 in0.0 mm 0.00 in/hr0.0 mm/hr 0.00 in0.0 mm
07:52 PM 52.9°F11.6°C 17.6°F-8.0°C 25% 1.3 mph NNW2.1 kmh NNW 6.7 mph10.8 kmh 30.03 in1016.9 mb 0.00 in0.0 mm 0.00 in/hr0.0 mm/hr 0.00 in0.0 mm
07:57 PM 52.7°F11.5°C 17.5°F-8.1°C 25% 1.6 mph NW2.6 kmh NW 6.7 mph10.8 kmh 30.03 in1016.9 mb 0.00 in0.0 mm 0.00 in/hr0.0 mm/hr 0.00 in0.0 mm
08:03 PM 52.6°F11.4°C 18.3°F-7.6°C 26% 2.3 mph NNW3.7 kmh NNW 3.4 mph5.5 kmh 30.03 in1016.9 mb 0.00 in0.0 mm 0.00 in/hr0.0 mm/hr 0.00 in0.0 mm
08:08 PM 52.6°F11.4°C 18.3°F-7.6°C 26% 0.7 mph NW1.1 kmh NW 4.5 mph7.2 kmh 30.03 in1016.9 mb 0.00 in0.0 mm 0.00 in/hr0.0 mm/hr 0.00 in0.0 mm
08:13 PM 52.4°F11.3°C 18.2°F-7.7°C 26% 3.7 mph N6.0 kmh N 5.4 mph8.7 kmh 30.03 in1016.9 mb 0.00 in0.0 mm 0.00 in/hr0.0 mm/hr 0.00 in0.0 mm
08:18 PM 52.2°F11.2°C 18.9°F-7.3°C 27% 3.7 mph N6.0 kmh N 5.4 mph8.7 kmh 30.03 in1016.9 mb 0.00 in0.0 mm 0.00 in/hr0.0 mm/hr 0.00 in0.0 mm
08:22 PM 51.8°F11.0°C 18.6°F-7.4°C 27% 3.3 mph N5.3 kmh N 4.0 mph6.4 kmh 30.03 in1016.9 mb 0.00 in0.0 mm 0.00 in/hr0.0 mm/hr 0.00 in0.0 mm
08:27 PM 51.5°F10.8°C 18.3°F-7.6°C 27% 5.1 mph N8.2 kmh N 6.3 mph10.1 kmh 30.03 in1016.9 mb 0.00 in0.0 mm 0.00 in/hr0.0 mm/hr 0.00 in0.0 mm
08:32 PM 51.5°F10.8°C 18.3°F-7.6°C 27% 3.7 mph 6.0 kmh 6.3 mph10.1 kmh 30.03 in1016.9 mb 0.00 in0.0 mm 0.00 in/hr0.0 mm/hr 0.00 in0.0 mm
08:37 PM 51.8°F11.0°C 19.5°F-6.9°C 28% 2.6 mph NNE4.2 kmh NNE 4.7 mph7.6 kmh 30.03 in1016.9 mb 0.00 in0.0 mm 0.00 in/hr0.0 mm/hr 0.00 in0.0 mm
08:42 PM 52.2°F11.2°C 19.9°F-6.7°C 28% 4.7 mph N7.6 kmh N 7.6 mph12.2 kmh 30.03 in1016.9 mb 0.00 in0.0 mm 0.00 in/hr0.0 mm/hr 0.00 in0.0 mm
08:47 PM 52.9°F11.6°C 19.5°F-6.9°C 27% 3.2 mph NNW5.1 kmh NNW 10.1 mph16.3 kmh 30.03 in1016.9 mb 0.00 in0.0 mm 0.00 in/hr0.0 mm/hr 0.00 in0.0 mm
08:52 PM 53.3°F11.8°C 20.8°F-6.2°C 28% 5.1 mph SW8.2 kmh SW 10.1 mph16.3 kmh 30.03 in1016.9 mb 0.00 in0.0 mm 0.00 in/hr0.0 mm/hr 0.00 in0.0 mm
08:57 PM 52.2°F11.2°C 18.9°F-7.3°C 27% 3.1 mph SSE5.0 kmh SSE 7.8 mph12.6 kmh 30.03 in1016.9 mb 0.00 in0.0 mm 0.00 in/hr0.0 mm/hr 0.00 in0.0 mm
09:03 PM 50.9°F10.5°C 17.8°F-7.9°C 27% 0.4 mph S0.6 kmh S 5.8 mph9.3 kmh 30.04 in1017.3 mb 0.00 in0.0 mm 0.00 in/hr0.0 mm/hr 0.00 in0.0 mm
09:08 PM 50.2°F10.1°C 18.1°F-7.7°C 28% 0.7 mph SE1.1 kmh SE 1.8 mph2.9 kmh 30.04 in1017.3 mb 0.00 in0.0 mm 0.00 in/hr0.0 mm/hr 0.00 in0.0 mm
09:13 PM 50.0°F10.0°C 18.9°F-7.3°C 29% 0.8 mph E1.3 kmh E 4.7 mph7.6 kmh 30.04 in1017.3 mb 0.00 in0.0 mm 0.00 in/hr0.0 mm/hr 0.00 in0.0 mm
09:18 PM 51.8°F11.0°C 22.2°F-5.4°C 31% 2.7 mph SW4.3 kmh SW 4.9 mph7.9 kmh 30.03 in1016.9 mb 0.00 in0.0 mm 0.00 in/hr0.0 mm/hr 0.00 in0.0 mm
09:23 PM 54.7°F12.6°C 27.4°F-2.6°C 35% 11.6 mph S18.7 kmh S 13.0 mph20.9 kmh 30.03 in1016.9 mb 0.00 in0.0 mm 0.00 in/hr0.0 mm/hr 0.00 in0.0 mm
09:28 PM 57.8°F14.3°C 28.0°F-2.2°C 32% 10.2 mph S16.4 kmh S 13.4 mph21.6 kmh 30.03 in1016.9 mb 0.00 in0.0 mm 0.00 in/hr0.0 mm/hr 0.00 in0.0 mm
09:33 PM 59.6°F15.3°C 28.9°F-1.7°C 31% 12.2 mph S19.6 kmh S 14.8 mph23.8 kmh 30.03 in1016.9 mb 0.00 in0.0 mm 0.00 in/hr0.0 mm/hr 0.00 in0.0 mm
09:38 PM 60.8°F16.0°C 29.2°F-1.6°C 30% 16.3 mph SSW26.2 kmh SSW 17.0 mph27.4 kmh 30.03 in1016.9 mb 0.00 in0.0 mm 0.00 in/hr0.0 mm/hr 0.00 in0.0 mm
09:43 PM 61.6°F16.4°C 28.9°F-1.7°C 29% 10.5 mph SSW16.9 kmh SSW 17.0 mph27.4 kmh 30.03 in1016.9 mb 0.00 in0.0 mm 0.00 in/hr0.0 mm/hr 0.00 in0.0 mm
09:48 PM 62.3°F16.8°C 28.5°F-1.9°C 28% 13.7 mph S22.0 kmh S 19.5 mph31.4 kmh 30.03 in1016.9 mb 0.00 in0.0 mm 0.00 in/hr0.0 mm/hr 0.00 in0.0 mm
09:53 PM 62.8°F17.1°C 29.0°F-1.7°C 28% 13.9 mph S22.4 kmh S 19.5 mph31.4 kmh 30.03 in1016.9 mb 0.00 in0.0 mm 0.00 in/hr0.0 mm/hr 0.00 in0.0 mm
09:58 PM 63.2°F17.3°C 29.4°F-1.4°C 28% 15.6 mph S25.1 kmh S 16.6 mph26.7 kmh 30.03 in1016.9 mb 0.00 in0.0 mm 0.00 in/hr0.0 mm/hr 0.00 in0.0 mm
10:03 PM 63.5°F17.5°C 28.6°F-1.9°C 27% 10.2 mph S16.4 kmh S 16.3 mph26.2 kmh 30.03 in1016.9 mb 0.00 in0.0 mm 0.00 in/hr0.0 mm/hr 0.00 in0.0 mm
10:08 PM 63.4°F17.4°C 28.5°F-1.9°C 27% 10.5 mph S16.9 kmh S 16.3 mph26.2 kmh 30.04 in1017.3 mb 0.00 in0.0 mm 0.00 in/hr0.0 mm/hr 0.00 in0.0 mm
10:13 PM 63.5°F17.5°C 28.6°F-1.9°C 27% 11.4 mph SSW18.3 kmh SSW 17.9 mph28.8 kmh 30.04 in1017.3 mb 0.00 in0.0 mm 0.00 in/hr0.0 mm/hr 0.00 in0.0 mm
10:18 PM 63.5°F17.5°C 28.6°F-1.9°C 27% 12.3 mph S19.8 kmh S 17.9 mph28.8 kmh 30.04 in1017.3 mb 0.00 in0.0 mm 0.00 in/hr0.0 mm/hr 0.00 in0.0 mm
10:23 PM 63.5°F17.5°C 28.6°F-1.9°C 27% 13.9 mph SSW22.4 kmh SSW 17.9 mph28.8 kmh 30.04 in1017.3 mb 0.00 in0.0 mm 0.00 in/hr0.0 mm/hr 0.00 in0.0 mm
10:28 PM 63.5°F17.5°C 28.6°F-1.9°C 27% 11.6 mph S18.7 kmh S 17.9 mph28.8 kmh 30.04 in1017.3 mb 0.00 in0.0 mm 0.00 in/hr0.0 mm/hr 0.00 in0.0 mm
10:33 PM 63.5°F17.5°C 28.6°F-1.9°C 27% 8.6 mph S13.8 kmh S 13.0 mph20.9 kmh 30.04 in1017.3 mb 0.00 in0.0 mm 0.00 in/hr0.0 mm/hr 0.00 in0.0 mm
10:38 PM 63.4°F17.4°C 28.5°F-1.9°C 27% 8.1 mph S13.0 kmh S 13.4 mph21.6 kmh 30.04 in1017.3 mb 0.00 in0.0 mm 0.00 in/hr0.0 mm/hr 0.00 in0.0 mm
10:43 PM 63.5°F17.5°C 28.6°F-1.9°C 27% 13.6 mph S21.9 kmh S 19.0 mph30.6 kmh 30.03 in1016.9 mb 0.00 in0.0 mm 0.00 in/hr0.0 mm/hr 0.00 in0.0 mm
10:48 PM 63.5°F17.5°C 28.6°F-1.9°C 27% 11.1 mph SSE17.9 kmh SSE 19.0 mph30.6 kmh 30.03 in1016.9 mb 0.00 in0.0 mm 0.00 in/hr0.0 mm/hr 0.00 in0.0 mm
10:53 PM 63.5°F17.5°C 28.6°F-1.9°C 27% 10.3 mph S16.6 kmh S 15.7 mph25.3 kmh 30.04 in1017.3 mb 0.00 in0.0 mm 0.00 in/hr0.0 mm/hr 0.00 in0.0 mm
10:58 PM 63.5°F17.5°C 28.6°F-1.9°C 27% 7.9 mph SSW12.7 kmh SSW 15.0 mph24.1 kmh 30.04 in1017.3 mb 0.00 in0.0 mm 0.00 in/hr0.0 mm/hr 0.00 in0.0 mm
11:03 PM 63.4°F17.4°C 28.5°F-1.9°C 27% 6.1 mph SW9.8 kmh SW 11.6 mph18.7 kmh 30.04 in1017.3 mb 0.00 in0.0 mm 0.00 in/hr0.0 mm/hr 0.00 in0.0 mm
11:08 PM 63.5°F17.5°C 28.6°F-1.9°C 27% 12.8 mph SW20.6 kmh SW 13.0 mph20.9 kmh 30.04 in1017.3 mb 0.00 in0.0 mm 0.00 in/hr0.0 mm/hr 0.00 in0.0 mm
11:13 PM 63.7°F17.6°C 28.8°F-1.8°C 27% 11.2 mph SW18.0 kmh SW 17.2 mph27.7 kmh 30.04 in1017.3 mb 0.00 in0.0 mm 0.00 in/hr0.0 mm/hr 0.00 in0.0 mm
11:18 PM 63.7°F17.6°C 28.8°F-1.8°C 27% 9.8 mph SW15.8 kmh SW 17.2 mph27.7 kmh 30.04 in1017.3 mb 0.00 in0.0 mm 0.00 in/hr0.0 mm/hr 0.00 in0.0 mm
11:23 PM 63.7°F17.6°C 28.8°F-1.8°C 27% 11.3 mph SSW18.2 kmh SSW 15.2 mph24.5 kmh 30.04 in1017.3 mb 0.00 in0.0 mm 0.00 in/hr0.0 mm/hr 0.00 in0.0 mm
11:28 PM 63.5°F17.5°C 28.6°F-1.9°C 27% 7.8 mph WSW12.6 kmh WSW 15.2 mph24.5 kmh 30.04 in1017.3 mb 0.00 in0.0 mm 0.00 in/hr0.0 mm/hr 0.00 in0.0 mm
11:33 PM 62.8°F17.1°C 28.0°F-2.2°C 27% 7.5 mph SW12.1 kmh SW 11.4 mph18.3 kmh 30.04 in1017.3 mb 0.00 in0.0 mm 0.00 in/hr0.0 mm/hr 0.00 in0.0 mm
11:38 PM 62.3°F16.8°C 27.5°F-2.5°C 27% 5.7 mph SW9.2 kmh SW 8.5 mph13.7 kmh 30.04 in1017.3 mb 0.00 in0.0 mm 0.00 in/hr0.0 mm/hr 0.00 in0.0 mm
11:43 PM 61.7°F16.5°C 28.1°F-2.2°C 28% 7.5 mph WSW12.1 kmh WSW 8.5 mph13.7 kmh 30.04 in1017.3 mb 0.00 in0.0 mm 0.00 in/hr0.0 mm/hr 0.00 in0.0 mm
11:48 PM 61.4°F16.3°C 27.7°F-2.4°C 28% 10.7 mph SSW17.2 kmh SSW 11.6 mph18.7 kmh 30.04 in1017.3 mb 0.00 in0.0 mm 0.00 in/hr0.0 mm/hr 0.00 in0.0 mm
11:53 PM 61.6°F16.4°C 27.9°F-2.3°C 28% 9.1 mph SW14.6 kmh SW 11.6 mph18.7 kmh 30.04 in1017.3 mb 0.00 in0.0 mm 0.00 in/hr0.0 mm/hr 0.00 in0.0 mm
11:58 PM 61.6°F16.4°C 27.9°F-2.3°C 28% 12.3 mph SW19.8 kmh SW 13.9 mph22.4 kmh 30.04 in1017.3 mb 0.00 in0.0 mm 0.00 in/hr0.0 mm/hr 0.00 in0.0 mm